createdAt,value
2022-12-13T00:00:05.317Z,-5.10
2022-12-13T00:02:39.206Z,-5.20
2022-12-13T00:05:05.935Z,-5.20
2022-12-13T00:07:35.109Z,-5.31
2022-12-13T00:10:02.098Z,-5.70
2022-12-13T00:12:28.678Z,-5.42
2022-12-13T00:14:55.163Z,-5.47
2022-12-13T00:17:21.614Z,-5.47
2022-12-13T00:19:48.261Z,-5.35
2022-12-13T00:22:14.729Z,-5.18
2022-12-13T00:24:45.857Z,-5.35
2022-12-13T00:27:12.509Z,-5.34
2022-12-13T00:29:38.947Z,-5.51
2022-12-13T00:32:05.531Z,-5.39
2022-12-13T00:34:32.102Z,-5.78
2022-12-13T00:36:59.182Z,-5.78
2022-12-13T00:39:26.049Z,-5.64
2022-12-13T00:41:52.565Z,-5.51
2022-12-13T00:44:19.939Z,-5.48
2022-12-13T00:46:46.542Z,-5.66
2022-12-13T00:49:13.287Z,-5.47
2022-12-13T00:51:39.901Z,-5.47
2022-12-13T00:54:06.357Z,-5.06
2022-12-13T00:56:32.999Z,-5.37
2022-12-13T00:58:59.781Z,-5.21
2022-12-13T01:01:27.560Z,-5.48
2022-12-13T01:03:54.839Z,-5.52
2022-12-13T01:06:22.987Z,-5.56
2022-12-13T01:08:49.641Z,-5.73
2022-12-13T01:11:16.372Z,-5.62
2022-12-13T01:13:42.861Z,-5.79
2022-12-13T01:16:10.293Z,-5.96
2022-12-13T01:18:37.160Z,-5.96
2022-12-13T01:21:10.269Z,-5.73
2022-12-13T01:23:36.964Z,-5.67
2022-12-13T01:26:04.454Z,-5.86
2022-12-13T01:28:31.106Z,-5.70
2022-12-13T01:30:59.213Z,-5.76
2022-12-13T01:33:26.129Z,-5.77
2022-12-13T01:35:52.851Z,-5.68
2022-12-13T01:38:19.774Z,-5.71
2022-12-13T01:40:59.029Z,-5.80
2022-12-13T01:43:49.104Z,-6.17
2022-12-13T01:46:16.876Z,-5.95
2022-12-13T01:48:49.005Z,-5.98
2022-12-13T01:51:17.849Z,-6.08
2022-12-13T01:53:44.978Z,-6.23
2022-12-13T01:56:16.323Z,-6.07
2022-12-13T01:58:42.996Z,-6.05
2022-12-13T02:01:09.583Z,-6.27
2022-12-13T02:03:36.278Z,-6.28
2022-12-13T02:06:05.666Z,-6.19
2022-12-13T02:08:36.097Z,-6.29
2022-12-13T02:11:03.813Z,-6.29
2022-12-13T02:13:30.214Z,-6.45
2022-12-13T02:16:23.324Z,-6.46
2022-12-13T02:18:49.797Z,-6.37
2022-12-13T02:21:19.604Z,-6.32
2022-12-13T02:24:09.506Z,-6.49
2022-12-13T02:26:46.230Z,-6.21
2022-12-13T02:29:31.805Z,-6.21
2022-12-13T02:32:04.396Z,-6.18
2022-12-13T02:34:36.744Z,-6.15
2022-12-13T02:37:17.844Z,-6.27
2022-12-13T02:39:48.924Z,-6.35
2022-12-13T02:42:22.340Z,-6.36
2022-12-13T02:45:03.152Z,-6.57
2022-12-13T02:47:31.266Z,-6.64
2022-12-13T02:49:59.195Z,-6.49
2022-12-13T02:52:28.052Z,-6.37
2022-12-13T02:54:55.498Z,-6.43
2022-12-13T02:57:29.408Z,-6.36
2022-12-13T02:59:56.417Z,-6.41
2022-12-13T03:02:31.643Z,-6.52
2022-12-13T03:05:33.116Z,-6.45
2022-12-13T03:08:05.719Z,-6.47
2022-12-13T03:10:43.351Z,-6.40
2022-12-13T03:13:32.645Z,-6.67
2022-12-13T03:16:00.736Z,-6.89
2022-12-13T03:18:28.144Z,-6.70
2022-12-13T03:20:57.104Z,-6.70
2022-12-13T03:23:24.157Z,-6.81
2022-12-13T03:25:52.233Z,-6.56
2022-12-13T03:28:18.730Z,-6.50
2022-12-13T03:30:45.191Z,-6.61
2022-12-13T03:33:11.778Z,-6.90
2022-12-13T03:35:44.321Z,-6.78
2022-12-13T03:38:13.098Z,-6.77
2022-12-13T03:40:49.623Z,-6.75
2022-12-13T03:43:22.256Z,-6.71
2022-12-13T03:45:49.786Z,-6.92
2022-12-13T03:48:22.636Z,-6.77
2022-12-13T03:50:53.230Z,-6.76
2022-12-13T03:53:32.378Z,-6.73
2022-12-13T03:56:05.539Z,-6.74
2022-12-13T03:58:35.839Z,-6.78
2022-12-13T04:01:04.090Z,-6.57
2022-12-13T04:03:30.553Z,-6.57
2022-12-13T04:05:57.088Z,-6.60
2022-12-13T04:08:23.612Z,-6.60
2022-12-13T04:10:50.077Z,-6.63
2022-12-13T04:13:34.940Z,-6.49
2022-12-13T04:16:02.449Z,-6.57
2022-12-13T04:18:29.152Z,-6.44
2022-12-13T04:20:55.655Z,-6.70
2022-12-13T04:23:22.092Z,-6.83
2022-12-13T04:25:48.589Z,-7.00
2022-12-13T04:28:21.616Z,-6.98
2022-12-13T04:30:53.720Z,-6.95
2022-12-13T04:33:24.289Z,-6.94
2022-12-13T04:35:51.070Z,-6.95
2022-12-13T04:38:18.003Z,-7.25
2022-12-13T04:40:44.527Z,-7.39
2022-12-13T04:43:10.942Z,-7.05
2022-12-13T04:45:37.513Z,-7.05
2022-12-13T04:48:04.970Z,-6.99
2022-12-13T04:50:32.410Z,-6.98
2022-12-13T04:52:58.864Z,-6.92
2022-12-13T04:55:25.284Z,-6.95
2022-12-13T04:57:52.186Z,-6.85
2022-12-13T05:00:18.744Z,-6.83
2022-12-13T05:02:45.225Z,-6.88
2022-12-13T05:05:13.549Z,-7.21
2022-12-13T05:07:43.007Z,-7.21
2022-12-13T05:10:10.764Z,-7.06
2022-12-13T05:12:37.260Z,-6.95
2022-12-13T05:15:03.945Z,-6.88
2022-12-13T05:17:30.444Z,-6.97
2022-12-13T05:19:56.882Z,-7.32
2022-12-13T05:22:23.346Z,-7.16
2022-12-13T05:24:49.866Z,-7.21
2022-12-13T05:27:24.612Z,-7.15
2022-12-13T05:30:05.302Z,-7.03
2022-12-13T05:32:44.242Z,-7.03
2022-12-13T05:35:23.176Z,-6.99
2022-12-13T05:37:54.760Z,-6.93
2022-12-13T05:40:22.731Z,-7.10
2022-12-13T05:42:49.182Z,-6.96
2022-12-13T05:45:17.446Z,-7.02
2022-12-13T05:47:44.480Z,-6.98
2022-12-13T05:50:11.013Z,-6.92
2022-12-13T05:52:37.674Z,-7.00
2022-12-13T05:55:04.412Z,-6.92
2022-12-13T05:57:30.862Z,-6.91
2022-12-13T05:59:57.622Z,-7.09
2022-12-13T06:02:24.285Z,-7.08
2022-12-13T06:04:50.876Z,-7.00
2022-12-13T06:07:17.307Z,-6.99
2022-12-13T06:09:43.756Z,-7.01
2022-12-13T06:12:32.106Z,-6.98
2022-12-13T06:15:01.201Z,-7.02
2022-12-13T06:17:43.293Z,-6.99
2022-12-13T06:20:23.393Z,-7.01
2022-12-13T06:22:51.825Z,-6.97
2022-12-13T06:25:31.219Z,-6.93
2022-12-13T06:28:01.658Z,-6.95
2022-12-13T06:30:28.716Z,-6.87
2022-12-13T06:32:55.267Z,-7.02
2022-12-13T06:35:28.505Z,-7.08
2022-12-13T06:38:01.508Z,-7.16
2022-12-13T06:40:32.041Z,-6.98
2022-12-13T06:42:58.477Z,-6.93
2022-12-13T06:45:25.144Z,-6.88
2022-12-13T06:47:51.612Z,-6.67
2022-12-13T06:50:18.068Z,-6.76
2022-12-13T06:52:46.088Z,-6.95
2022-12-13T06:55:12.690Z,-6.93
2022-12-13T06:57:40.652Z,-6.82
2022-12-13T07:00:07.871Z,-6.66
2022-12-13T07:02:34.448Z,-6.67
2022-12-13T07:05:01.016Z,-6.46
2022-12-13T07:07:27.557Z,-5.56
2022-12-13T07:09:53.968Z,-5.37
2022-12-13T07:12:21.058Z,-4.95
2022-12-13T07:14:47.680Z,-4.91
2022-12-13T07:17:32.367Z,-4.29
2022-12-13T07:20:01.133Z,-3.62
2022-12-13T07:22:27.906Z,-3.40
2022-12-13T07:24:54.330Z,-4.17
2022-12-13T07:27:20.868Z,-3.67
2022-12-13T07:29:47.275Z,-2.93
2022-12-13T07:32:13.856Z,-2.24
2022-12-13T07:34:40.776Z,-2.13
2022-12-13T07:37:08.731Z,-2.38
2022-12-13T07:40:02.645Z,-2.51
2022-12-13T07:42:30.190Z,-2.06
2022-12-13T07:44:56.647Z,-1.81
2022-12-13T07:47:23.401Z,-1.90
2022-12-13T07:49:49.909Z,-1.48
2022-12-13T07:52:16.505Z,-1.72
2022-12-13T07:54:43.809Z,-1.67
2022-12-13T07:57:10.285Z,-1.25
2022-12-13T07:59:36.768Z,-1.12
2022-12-13T08:02:03.383Z,-1.01
2022-12-13T08:04:30.032Z,-1.09
2022-12-13T08:07:08.980Z,-0.24
2022-12-13T08:09:35.635Z,-0.18
2022-12-13T08:12:02.125Z,-0.73
2022-12-13T08:14:28.599Z,-0.68
2022-12-13T08:16:55.113Z,-1.51
2022-12-13T08:19:21.612Z,-0.43
2022-12-13T08:21:57.391Z,-1.30
2022-12-13T08:24:29.384Z,-1.02
2022-12-13T08:27:00.932Z,-0.48
2022-12-13T08:29:33.639Z,-0.60
2022-12-13T08:32:06.172Z,-0.96
2022-12-13T08:34:32.689Z,-0.93
2022-12-13T08:37:02.182Z,-0.75
2022-12-13T08:39:30.221Z,-0.40
2022-12-13T08:42:00.599Z,-0.63
2022-12-13T08:44:44.519Z,-1.36
2022-12-13T08:47:11.085Z,-0.52
2022-12-13T08:49:37.567Z,0.05
2022-12-13T08:52:04.096Z,-0.83
2022-12-13T08:54:32.964Z,-0.83
2022-12-13T08:57:01.654Z,-0.59
2022-12-13T08:59:28.080Z,0.13
2022-12-13T09:01:57.629Z,0.37
2022-12-13T09:04:31.457Z,0.90
2022-12-13T09:07:01.612Z,0.43
2022-12-13T09:09:29.319Z,0.84
2022-12-13T09:11:59.444Z,-0.11
2022-12-13T09:14:33.769Z,0.64
2022-12-13T09:17:02.829Z,0.50
2022-12-13T09:19:30.442Z,0.91
2022-12-13T09:22:04.534Z,1.36
2022-12-13T09:24:36.218Z,1.66
2022-12-13T09:27:09.466Z,1.55
2022-12-13T09:29:36.556Z,1.40
2022-12-13T09:32:03.264Z,1.83
2022-12-13T09:34:29.956Z,2.12
2022-12-13T09:37:01.560Z,2.26
2022-12-13T09:39:28.892Z,1.75
2022-12-13T09:42:00.601Z,1.88
2022-12-13T09:44:42.389Z,2.37
2022-12-13T09:47:22.813Z,3.10
2022-12-13T09:49:53.168Z,2.09
2022-12-13T09:52:22.551Z,3.61
2022-12-13T09:54:50.686Z,1.87
2022-12-13T09:57:31.222Z,1.82
2022-12-13T10:00:00.217Z,2.61
2022-12-13T10:02:29.877Z,2.93
2022-12-13T10:05:34.193Z,2.85
2022-12-13T10:08:24.270Z,3.04
2022-12-13T10:10:52.979Z,2.64
2022-12-13T10:13:28.601Z,3.11
2022-12-13T10:15:58.959Z,2.62
2022-12-13T10:18:33.970Z,3.65
2022-12-13T10:21:03.602Z,2.99
2022-12-13T10:23:42.814Z,3.13
2022-12-13T10:26:24.264Z,3.58
2022-12-13T10:29:01.074Z,3.47
2022-12-13T10:31:27.766Z,3.16
2022-12-13T10:33:56.058Z,3.48
2022-12-13T10:36:28.730Z,3.30
2022-12-13T10:38:55.563Z,3.96
2022-12-13T10:41:38.307Z,3.86
2022-12-13T10:44:11.285Z,3.91
2022-12-13T10:46:41.043Z,3.02
2022-12-13T10:49:16.456Z,2.83
2022-12-13T10:51:43.033Z,2.94
2022-12-13T10:54:16.708Z,2.77
2022-12-13T10:56:46.597Z,2.54
2022-12-13T10:59:20.983Z,2.89
2022-12-13T11:01:47.589Z,3.56
2022-12-13T11:04:32.895Z,3.65
2022-12-13T11:07:01.090Z,4.09
2022-12-13T11:09:29.540Z,4.09
2022-12-13T11:12:12.828Z,4.45
2022-12-13T11:14:46.771Z,4.19
2022-12-13T11:17:20.850Z,3.38
2022-12-13T11:19:52.472Z,3.55
2022-12-13T11:22:21.283Z,3.81
2022-12-13T11:24:52.583Z,3.18
2022-12-13T11:27:22.054Z,3.35
2022-12-13T11:29:56.587Z,3.20
2022-12-13T11:32:41.323Z,3.77
2022-12-13T11:35:17.086Z,3.45
2022-12-13T11:37:55.743Z,4.01
2022-12-13T11:40:54.896Z,4.09
2022-12-13T11:43:27.195Z,3.59
2022-12-13T11:45:56.493Z,4.08
2022-12-13T11:48:34.650Z,3.96
2022-12-13T11:51:01.175Z,3.06
2022-12-13T11:53:33.553Z,3.89
2022-12-13T11:56:12.232Z,3.70
2022-12-13T11:59:16.136Z,3.57
2022-12-13T12:01:53.256Z,3.55
2022-12-13T12:04:19.671Z,3.65
2022-12-13T12:06:50.649Z,2.96
2022-12-13T12:09:20.035Z,3.01
2022-12-13T12:12:02.048Z,2.98
2022-12-13T12:14:52.292Z,3.30
2022-12-13T12:17:22.687Z,2.99
2022-12-13T12:19:51.080Z,3.93
2022-12-13T12:22:24.245Z,3.61
2022-12-13T12:25:13.917Z,3.27
2022-12-13T12:27:40.316Z,3.76
2022-12-13T12:30:12.086Z,3.90
2022-12-13T12:32:43.897Z,3.98
2022-12-13T12:35:26.783Z,4.33
2022-12-13T12:38:01.752Z,4.19
2022-12-13T12:40:52.135Z,3.96
2022-12-13T12:43:28.757Z,3.74
2022-12-13T12:45:57.264Z,3.94
2022-12-13T12:48:57.067Z,3.15
2022-12-13T12:51:32.550Z,3.56
2022-12-13T12:53:59.009Z,3.27
2022-12-13T12:56:42.610Z,3.63
2022-12-13T12:59:17.637Z,2.91
2022-12-13T13:01:44.474Z,3.00
2022-12-13T13:04:22.699Z,3.16
2022-12-13T13:07:22.844Z,2.56
2022-12-13T13:09:51.539Z,2.74
2022-12-13T13:12:28.807Z,3.09
2022-12-13T13:14:57.386Z,3.26
2022-12-13T13:17:23.838Z,2.61
2022-12-13T13:19:59.165Z,2.70
2022-12-13T13:22:44.419Z,3.10
2022-12-13T13:25:33.333Z,2.81
2022-12-13T13:28:06.111Z,2.95
2022-12-13T13:30:33.055Z,2.87
2022-12-13T13:32:59.713Z,2.58
2022-12-13T13:35:33.019Z,3.22
2022-12-13T13:38:03.470Z,2.87
2022-12-13T13:40:31.545Z,3.31
2022-12-13T13:43:01.876Z,2.75
2022-12-13T13:45:28.461Z,1.96
2022-12-13T13:48:14.258Z,2.04
2022-12-13T13:50:59.954Z,2.37
2022-12-13T13:53:29.399Z,2.57
2022-12-13T13:56:08.421Z,2.10
2022-12-13T13:58:53.637Z,2.09
2022-12-13T14:01:20.215Z,2.12
2022-12-13T14:04:06.259Z,2.58
2022-12-13T14:07:00.715Z,2.59
2022-12-13T14:09:43.405Z,2.50
2022-12-13T14:12:27.881Z,2.16
2022-12-13T14:15:15.912Z,1.63
2022-12-13T14:17:48.712Z,1.48
2022-12-13T14:20:35.481Z,0.46
2022-12-13T14:23:04.994Z,0.77
2022-12-13T14:25:31.413Z,0.48
2022-12-13T14:28:01.226Z,-0.25
2022-12-13T14:30:29.330Z,-0.57
2022-12-13T14:32:56.693Z,-0.63
2022-12-13T14:35:31.019Z,-0.57
2022-12-13T14:38:02.480Z,-0.86
2022-12-13T14:40:33.685Z,-1.00
2022-12-13T14:43:00.348Z,-0.66
2022-12-13T14:45:27.721Z,-0.79
2022-12-13T14:47:54.904Z,-0.84
2022-12-13T14:50:21.589Z,-1.25
2022-12-13T14:52:50.509Z,-1.21
2022-12-13T14:55:33.893Z,-1.37
2022-12-13T14:58:01.069Z,-1.12
2022-12-13T15:00:27.831Z,-1.00
2022-12-13T15:02:56.522Z,-1.07
2022-12-13T15:05:28.364Z,-0.91
2022-12-13T15:07:55.963Z,-1.23
2022-12-13T15:10:27.944Z,-1.34
2022-12-13T15:12:55.063Z,-1.18
2022-12-13T15:15:32.893Z,-1.09
2022-12-13T15:18:21.088Z,-1.01
2022-12-13T15:20:49.940Z,-1.08
2022-12-13T15:23:21.384Z,-1.24
2022-12-13T15:25:55.585Z,-1.26
2022-12-13T15:28:22.379Z,-1.30
2022-12-13T15:30:51.798Z,-1.30
2022-12-13T15:33:18.284Z,-0.86
2022-12-13T15:35:47.966Z,-0.77
2022-12-13T15:38:28.271Z,-0.93
2022-12-13T15:40:55.959Z,-1.18
2022-12-13T15:43:24.308Z,-1.07
2022-12-13T15:45:52.027Z,-1.32
2022-12-13T15:48:31.141Z,-1.21
2022-12-13T15:51:09.497Z,-1.24
2022-12-13T15:53:36.441Z,-1.24
2022-12-13T15:56:09.419Z,-1.35
2022-12-13T15:58:37.198Z,-1.26
2022-12-13T16:01:05.531Z,-1.28
2022-12-13T16:03:38.381Z,-1.21
2022-12-13T16:06:06.512Z,-1.35
2022-12-13T16:08:35.692Z,-1.23
2022-12-13T16:11:02.536Z,-1.34
2022-12-13T16:13:30.699Z,-1.53
2022-12-13T16:16:00.121Z,-1.40
2022-12-13T16:18:42.528Z,-1.35
2022-12-13T16:21:09.404Z,-1.41
2022-12-13T16:23:35.845Z,-1.50
2022-12-13T16:26:08.526Z,-1.56
2022-12-13T16:28:35.524Z,-1.80
2022-12-13T16:31:13.147Z,-1.74
2022-12-13T16:33:39.668Z,-1.71
2022-12-13T16:36:06.235Z,-1.71
2022-12-13T16:38:33.469Z,-1.85
2022-12-13T16:41:00.560Z,-1.83
2022-12-13T16:43:37.777Z,-1.97
2022-12-13T16:47:16.910Z,-1.78
2022-12-13T16:48:52.077Z,-2.10
2022-12-13T16:51:18.605Z,-2.28
2022-12-13T16:53:45.244Z,-2.31
2022-12-13T16:56:14.692Z,-2.13
2022-12-13T16:58:46.055Z,-2.34
2022-12-13T17:01:18.673Z,-2.26
2022-12-13T17:03:45.193Z,-2.23
2022-12-13T17:06:12.514Z,-2.11
2022-12-13T17:08:38.988Z,-2.32
2022-12-13T17:11:06.947Z,-2.12
2022-12-13T17:13:33.435Z,-2.24
2022-12-13T17:16:00.176Z,-2.34
2022-12-13T17:18:26.922Z,-2.25
2022-12-13T17:20:58.547Z,-2.21
2022-12-13T17:23:26.032Z,-2.42
2022-12-13T17:25:58.194Z,-2.57
2022-12-13T17:28:25.343Z,-2.69
2022-12-13T17:30:54.867Z,-2.76
2022-12-13T17:33:21.716Z,-2.58
2022-12-13T17:35:48.273Z,-2.60
2022-12-13T17:38:14.703Z,-2.70
2022-12-13T17:40:41.837Z,-2.70
2022-12-13T17:43:24.143Z,-2.75
2022-12-13T17:45:56.442Z,-2.76
2022-12-13T17:48:23.054Z,-2.78
2022-12-13T17:50:49.663Z,-2.75
2022-12-13T17:53:16.781Z,-3.03
2022-12-13T17:55:44.154Z,-3.06
2022-12-13T17:58:10.607Z,-2.99
2022-12-13T18:00:37.521Z,-2.87
2022-12-13T18:03:04.135Z,-2.83
2022-12-13T18:05:31.746Z,-2.77
2022-12-13T18:07:58.166Z,-2.80
2022-12-13T18:10:29.480Z,-2.79
2022-12-13T18:12:56.471Z,-2.96
2022-12-13T18:15:22.916Z,-2.89
2022-12-13T18:18:10.803Z,-2.98
2022-12-13T18:20:36.035Z,-2.98
2022-12-13T18:23:02.476Z,-3.03
2022-12-13T18:25:29.284Z,-2.76
2022-12-13T18:28:00.565Z,-2.72
2022-12-13T18:30:28.147Z,-2.59
2022-12-13T18:32:54.731Z,-2.75
2022-12-13T18:35:21.171Z,-2.95
2022-12-13T18:37:47.726Z,-2.77
2022-12-13T18:40:14.241Z,-2.82
2022-12-13T18:42:40.856Z,-2.70
2022-12-13T18:45:07.548Z,-2.61
2022-12-13T18:47:33.956Z,-2.56
2022-12-13T18:50:00.429Z,-2.50
2022-12-13T18:52:27.004Z,-2.46
2022-12-13T18:54:54.607Z,-2.34
2022-12-13T18:57:21.369Z,-2.47
2022-12-13T18:59:54.621Z,-2.48
2022-12-13T19:02:21.806Z,-2.24
2022-12-13T19:04:55.287Z,-2.09
2022-12-13T19:07:22.321Z,-2.05
2022-12-13T19:09:54.485Z,-2.08
2022-12-13T19:12:21.483Z,-2.13
2022-12-13T19:14:54.478Z,-2.20
2022-12-13T19:17:21.865Z,-2.15
2022-12-13T19:19:48.554Z,-2.12
2022-12-13T19:22:15.887Z,-2.07
2022-12-13T19:24:42.439Z,-1.97
2022-12-13T19:27:08.863Z,-1.87
2022-12-13T19:29:35.339Z,-1.72
2022-12-13T19:32:01.836Z,-1.73
2022-12-13T19:34:28.338Z,-1.79
2022-12-13T19:36:54.821Z,-1.91
2022-12-13T19:39:21.275Z,-1.90
2022-12-13T19:41:48.007Z,-1.84
2022-12-13T19:44:14.449Z,-2.12
2022-12-13T19:46:40.950Z,-2.05
2022-12-13T19:49:07.423Z,-1.98
2022-12-13T19:51:39.213Z,-1.99
2022-12-13T19:54:06.253Z,-2.04
2022-12-13T19:56:32.731Z,-1.93
2022-12-13T19:58:59.179Z,-1.95
2022-12-13T20:01:25.625Z,-1.99
2022-12-13T20:03:52.161Z,-1.82
2022-12-13T20:06:20.307Z,-1.84
2022-12-13T20:08:47.048Z,-1.97
2022-12-13T20:11:15.236Z,-1.87
2022-12-13T20:13:41.723Z,-1.86
2022-12-13T20:16:14.057Z,-1.86
2022-12-13T20:18:40.713Z,-1.85
2022-12-13T20:21:13.054Z,-1.88
2022-12-13T20:23:40.783Z,-1.93
2022-12-13T20:26:08.970Z,-1.90
2022-12-13T20:28:35.397Z,-1.93
2022-12-13T20:31:02.810Z,-1.90
2022-12-13T20:33:29.721Z,-1.80
2022-12-13T20:36:23.218Z,-1.63
2022-12-13T20:38:47.965Z,-1.65
2022-12-13T20:41:14.836Z,-1.69
2022-12-13T20:43:42.672Z,-1.73
2022-12-13T20:46:13.811Z,-1.70
2022-12-13T20:48:41.508Z,-1.72
2022-12-13T20:51:08.806Z,-1.66
2022-12-13T20:53:37.734Z,-1.89
2022-12-13T20:56:05.142Z,-1.86
2022-12-13T20:58:34.387Z,-1.75
2022-12-13T21:01:05.547Z,-1.71
2022-12-13T21:03:32.789Z,-1.84
2022-12-13T21:05:59.289Z,-1.63
2022-12-13T21:08:44.569Z,-1.73
2022-12-13T21:11:26.412Z,-1.71
2022-12-13T21:14:08.190Z,-1.83
2022-12-13T21:16:38.871Z,-1.80
2022-12-13T21:19:06.570Z,-1.64
2022-12-13T21:21:33.198Z,-1.41
2022-12-13T21:23:59.726Z,-1.54
2022-12-13T21:26:31.499Z,-1.68
2022-12-13T21:29:01.960Z,-1.65
2022-12-13T21:31:29.227Z,-1.72
2022-12-13T21:33:56.984Z,-1.71
2022-12-13T21:36:24.628Z,-1.58
2022-12-13T21:38:56.449Z,-1.66
2022-12-13T21:41:23.264Z,-1.58
2022-12-13T21:43:50.601Z,-1.57
2022-12-13T21:46:18.715Z,-1.66
2022-12-13T21:48:46.152Z,-1.73
2022-12-13T21:51:14.038Z,-1.62
2022-12-13T21:53:40.588Z,-1.44
2022-12-13T21:56:26.244Z,-1.46
2022-12-13T21:59:11.491Z,-1.30
2022-12-13T22:02:01.732Z,-1.31
2022-12-13T22:04:28.651Z,-1.56
2022-12-13T22:06:55.097Z,-1.44
2022-12-13T22:09:21.560Z,-1.40
2022-12-13T22:11:47.993Z,-1.26
2022-12-13T22:14:14.481Z,-1.49
2022-12-13T22:16:41.025Z,-1.31
2022-12-13T22:19:07.478Z,-1.31
2022-12-13T22:21:33.892Z,-1.47
2022-12-13T22:24:00.361Z,-1.46
2022-12-13T22:26:26.981Z,-1.59
2022-12-13T22:28:53.542Z,-1.54
2022-12-13T22:31:21.559Z,-1.43
2022-12-13T22:33:49.684Z,-1.34
2022-12-13T22:36:17.857Z,-1.23
2022-12-13T22:38:46.880Z,-1.15
2022-12-13T22:41:16.003Z,-0.83
2022-12-13T22:43:43.351Z,-1.19
2022-12-13T22:46:14.788Z,-1.38
2022-12-13T22:48:41.336Z,-1.50
2022-12-13T22:51:10.218Z,-1.35
2022-12-13T22:53:36.712Z,-1.43
2022-12-13T22:56:06.866Z,-1.31
2022-12-13T22:58:33.597Z,-1.25
2022-12-13T23:01:06.942Z,-1.21
2022-12-13T23:03:33.457Z,-1.20
2022-12-13T23:06:07.323Z,-1.24
2022-12-13T23:08:37.559Z,-1.10
2022-12-13T23:11:25.505Z,-1.23
2022-12-13T23:13:55.657Z,-1.30
2022-12-13T23:16:23.240Z,-1.33
2022-12-13T23:18:49.716Z,-1.26
2022-12-13T23:21:16.830Z,-1.10
2022-12-13T23:23:43.325Z,-1.08
2022-12-13T23:26:17.201Z,-1.13
2022-12-13T23:28:44.447Z,-1.18
2022-12-13T23:31:11.135Z,-1.26
2022-12-13T23:33:38.906Z,-1.28
2022-12-13T23:36:09.713Z,-1.25
2022-12-13T23:38:36.368Z,-1.27
2022-12-13T23:41:07.369Z,-1.22
2022-12-13T23:43:34.117Z,-1.22
2022-12-13T23:46:01.576Z,-1.13
2022-12-13T23:48:28.925Z,-1.07
2022-12-13T23:50:56.210Z,-0.99
2022-12-13T23:53:22.981Z,-1.04
2022-12-13T23:55:49.537Z,-1.18
2022-12-13T23:58:17.464Z,-1.25
